createdAt,value
2022-09-09T00:00:26.546Z,2.30
2022-09-09T00:05:30.494Z,2.70
2022-09-09T00:10:31.717Z,2.37
2022-09-09T00:15:34.894Z,2.40
2022-09-09T00:20:39.508Z,3.00
2022-09-09T00:25:52.658Z,2.63
2022-09-09T00:30:50.242Z,2.67
2022-09-09T00:35:50.030Z,2.63
2022-09-09T00:40:52.734Z,2.33
2022-09-09T00:46:24.403Z,2.38
2022-09-09T00:51:31.068Z,2.60
2022-09-09T00:56:36.371Z,2.42
2022-09-09T01:01:36.344Z,2.85
2022-09-09T01:06:37.241Z,2.53
2022-09-09T01:11:46.936Z,2.30
2022-09-09T01:16:47.540Z,2.60
2022-09-09T01:21:57.102Z,2.65
2022-09-09T01:27:01.109Z,2.78
2022-09-09T01:32:01.720Z,2.83
2022-09-09T01:37:05.386Z,3.35
2022-09-09T01:42:05.222Z,2.92
2022-09-09T01:47:09.809Z,2.85
2022-09-09T01:52:22.170Z,3.03
2022-09-09T01:57:24.654Z,2.35
2022-09-09T02:02:31.402Z,2.83
2022-09-09T02:07:42.783Z,2.40
2022-09-09T02:13:04.151Z,2.45
2022-09-09T02:18:08.921Z,2.58
2022-09-09T02:23:09.073Z,2.88
2022-09-09T02:28:10.759Z,2.80
2022-09-09T02:33:12.977Z,2.70
2022-09-09T02:38:17.420Z,2.50
2022-09-09T02:43:32.849Z,2.58
2022-09-09T02:48:41.627Z,2.83
2022-09-09T02:53:45.511Z,2.72
2022-09-09T02:58:48.831Z,2.40
2022-09-09T03:03:46.974Z,4.25
2022-09-09T03:08:49.551Z,3.22
2022-09-09T03:13:52.775Z,2.72
2022-09-09T03:18:51.631Z,3.05
2022-09-09T03:23:51.199Z,3.00
2022-09-09T03:28:55.590Z,2.60
2022-09-09T03:34:05.760Z,2.85
2022-09-09T03:39:09.232Z,2.70
2022-09-09T03:44:07.325Z,2.95
2022-09-09T03:49:11.489Z,3.17
2022-09-09T03:54:10.684Z,2.70
2022-09-09T03:59:11.207Z,2.92
2022-09-09T04:04:12.723Z,2.28
2022-09-09T04:09:13.195Z,2.83
2022-09-09T04:14:16.676Z,3.03
2022-09-09T04:19:14.773Z,2.70
2022-09-09T04:24:16.791Z,3.22
2022-09-09T04:29:30.217Z,3.30
2022-09-09T04:34:49.763Z,2.63
2022-09-09T04:39:48.591Z,2.50
2022-09-09T04:45:03.553Z,2.53
2022-09-09T04:55:12.281Z,3.10
2022-09-09T05:05:15.574Z,1.98
2022-09-09T05:10:18.530Z,2.60
2022-09-09T05:15:23.847Z,3.35
2022-09-09T05:20:22.136Z,3.63
2022-09-09T05:25:21.181Z,2.75
2022-09-09T05:30:22.691Z,3.25
2022-09-09T05:35:24.434Z,2.40
2022-09-09T05:40:25.662Z,2.67
2022-09-09T05:45:29.475Z,2.55
2022-09-09T05:50:48.847Z,2.30
2022-09-09T05:56:10.059Z,2.25
2022-09-09T06:01:10.525Z,2.17
2022-09-09T06:06:20.996Z,2.45
2022-09-09T15:46:08.986Z,8.75
2022-09-09T15:51:31.154Z,7.13
2022-09-09T15:56:38.530Z,7.60
2022-09-09T16:02:08.672Z,7.93
2022-09-09T16:07:42.911Z,7.18
2022-09-09T16:13:17.492Z,6.65
2022-09-09T16:19:35.626Z,7.28
2022-09-09T16:24:54.189Z,6.93
2022-09-09T16:29:54.296Z,6.75
2022-09-09T16:35:26.508Z,7.63
2022-09-09T16:41:04.243Z,6.18
2022-09-09T16:46:07.227Z,6.55
2022-09-09T16:52:26.934Z,6.93
2022-09-09T16:57:42.524Z,7.03
2022-09-09T17:03:27.708Z,6.85
2022-09-09T17:08:57.967Z,6.78
2022-09-09T17:14:32.599Z,6.55
2022-09-09T17:20:18.206Z,6.20
2022-09-09T17:26:14.654Z,6.47
2022-09-09T17:31:21.433Z,6.40
2022-09-09T17:37:14.126Z,8.40
2022-09-09T17:42:43.389Z,6.80
2022-09-09T17:47:48.122Z,5.68
2022-09-09T17:53:29.515Z,7.90
2022-09-09T17:58:41.727Z,6.75
2022-09-09T18:03:45.381Z,7.13
2022-09-09T18:08:51.905Z,7.05
2022-09-09T18:13:50.322Z,6.30
2022-09-09T18:19:01.519Z,7.88
2022-09-09T18:24:10.296Z,6.85
2022-09-09T18:29:18.082Z,7.00
2022-09-09T18:34:39.630Z,10.63
2022-09-09T18:39:47.205Z,6.85
2022-09-09T18:45:04.500Z,8.50
2022-09-09T18:50:33.802Z,8.88
2022-09-09T18:56:06.732Z,7.68
2022-09-09T19:01:12.687Z,7.10
2022-09-09T19:06:30.447Z,6.88
2022-09-09T19:12:03.221Z,6.25
2022-09-09T19:17:21.175Z,6.97
2022-09-09T19:22:35.855Z,7.82
2022-09-09T19:28:02.648Z,7.93
2022-09-09T19:33:29.313Z,6.97
2022-09-09T19:43:52.423Z,6.93
2022-09-09T19:48:50.161Z,6.60
2022-09-09T19:54:13.215Z,5.97
2022-09-09T19:59:20.739Z,5.97
2022-09-09T20:04:38.887Z,6.38
2022-09-09T20:09:47.162Z,5.45
2022-09-09T20:14:55.344Z,6.40
2022-09-09T20:20:06.650Z,6.07
2022-09-09T20:30:36.013Z,5.90
2022-09-09T20:35:44.469Z,7.10
2022-09-09T20:41:03.934Z,5.22
2022-09-09T20:46:13.099Z,6.50
2022-09-09T20:51:31.058Z,5.60
2022-09-09T20:56:35.594Z,5.45
2022-09-09T21:01:56.316Z,5.18
2022-09-09T21:06:56.851Z,8.40
2022-09-09T21:11:59.779Z,7.80
2022-09-09T21:17:09.414Z,7.40
2022-09-09T21:22:14.263Z,7.28
2022-09-09T21:27:15.555Z,8.65
2022-09-09T21:32:34.981Z,5.70
2022-09-09T21:37:36.717Z,5.50
2022-09-09T21:42:39.956Z,7.95
2022-09-09T21:47:47.591Z,19.52
2022-09-09T21:52:49.633Z,7.55
2022-09-09T21:58:01.358Z,7.30
2022-09-09T22:03:07.211Z,7.70
2022-09-09T22:08:13.191Z,8.98
2022-09-09T22:13:17.103Z,7.28
2022-09-09T22:18:29.408Z,5.40
2022-09-09T22:23:29.038Z,5.47
2022-09-09T22:28:31.472Z,5.15
2022-09-09T22:33:35.965Z,5.35
2022-09-09T22:38:35.818Z,4.85
2022-09-09T22:43:36.596Z,5.72
2022-09-09T22:48:40.247Z,5.75
2022-09-09T22:53:38.738Z,4.57
2022-09-09T22:58:39.048Z,4.28
2022-09-09T23:03:40.647Z,3.97
2022-09-09T23:08:39.350Z,3.30
2022-09-09T23:13:43.701Z,2.80
2022-09-09T23:18:46.484Z,3.67
2022-09-09T23:23:56.943Z,3.83
2022-09-09T23:28:57.850Z,4.20
2022-09-09T23:34:15.984Z,3.67
2022-09-09T23:39:13.461Z,3.70
2022-09-09T23:44:27.849Z,3.20
2022-09-09T23:49:27.084Z,2.80
2022-09-09T23:54:26.605Z,2.72
2022-09-09T23:59:28.554Z,2.40
